Time;durP1;ratioP1;P1;durP2;ratioP2;P2;SDS_P1;SDS_P2;PMS_P1;PMS_P2;Temp;Humidity;BMP_temperature;BMP_pressure;BME280_temperature;BME280_humidity;BME280_pressure;Samples;Min_cycle;Max_cycle;Signal;HPM_P1;HPM_P2
2023/05/21 00:00:27;;;;;;;11.45;4.80;;;;;;;18.12;100.00;99763.09;5071408;28;20044;-72
2023/05/21 00:02:53;;;;;;;9.85;5.25;;;;;;;18.03;100.00;99732.81;5053849;28;20054;-73
2023/05/21 00:05:20;;;;;;;8.18;5.10;;;;;;;17.74;100.00;99700.34;5071322;28;20044;-72
2023/05/21 00:07:45;;;;;;;9.68;5.32;;;;;;;18.07;100.00;99744.56;5071474;28;20414;-73
2023/05/21 00:10:11;;;;;;;8.68;4.85;;;;;;;18.00;100.00;99750.19;5071340;28;20031;-73
2023/05/21 00:12:37;;;;;;;7.70;4.68;;;;;;;17.97;100.00;99753.75;5071456;28;20462;-74
2023/05/21 00:15:03;;;;;;;11.38;5.07;;;;;;;17.68;100.00;99705.03;5071507;28;20032;-73
2023/05/21 00:17:29;;;;;;;7.38;5.15;;;;;;;17.88;100.00;99731.19;5071448;28;20051;-73
2023/05/21 00:19:55;;;;;;;10.63;5.03;;;;;;;17.36;100.00;99670.97;5071529;28;20028;-73
2023/05/21 00:22:21;;;;;;;7.90;5.40;;;;;;;17.34;100.00;99670.25;5071463;28;20044;-74
2023/05/21 00:24:46;;;;;;;9.85;5.57;;;;;;;17.10;100.00;99623.72;5071179;28;20902;-73
2023/05/21 00:27:12;;;;;;;11.25;5.60;;;;;;;17.35;100.00;99661.63;5071238;28;20426;-73
2023/05/21 00:29:38;;;;;;;9.45;6.15;;;;;;;17.42;100.00;99654.34;5071319;28;20028;-73
2023/05/21 00:32:04;;;;;;;8.25;5.28;;;;;;;16.98;100.00;99569.69;5071262;28;20028;-73
2023/05/21 00:34:29;;;;;;;11.10;5.68;;;;;;;17.31;100.00;99632.69;5071080;28;20036;-73
2023/05/21 00:36:56;;;;;;;11.15;5.78;;;;;;;17.00;100.00;99570.44;5071475;28;20029;-73
2023/05/21 00:39:22;;;;;;;8.75;5.70;;;;;;;16.99;100.00;99558.53;5071647;28;20040;-74
2023/05/21 00:41:48;;;;;;;11.85;6.05;;;;;;;16.77;100.00;99517.09;5071237;28;20036;-73
2023/05/21 00:44:15;;;;;;;7.57;6.15;;;;;;;17.28;100.00;99590.94;5053010;28;20410;-73
2023/05/21 00:46:43;;;;;;;12.00;6.00;;;;;;;17.34;100.00;99588.00;5071155;28;20033;-73
2023/05/21 00:49:09;;;;;;;9.52;5.85;;;;;;;17.29;100.00;99574.63;5071098;28;20048;-72
2023/05/21 00:51:35;;;;;;;9.38;5.90;;;;;;;17.03;100.00;99529.16;5053255;28;20029;-73
2023/05/21 00:54:01;;;;;;;12.23;6.28;;;;;;;17.10;100.00;99574.09;5070893;28;20410;-73
2023/05/21 00:56:27;;;;;;;11.00;6.40;;;;;;;17.17;100.00;99576.19;5071162;28;20086;-73
2023/05/21 00:58:56;;;;;;;12.60;7.57;;;;;;;17.05;100.00;99542.75;5070882;28;20029;-69
2023/05/21 01:01:24;;;;;;;12.60;7.40;;;;;;;17.05;100.00;99481.94;5070406;28;21004;-72
2023/05/21 01:03:51;;;;;;;10.45;7.00;;;;;;;17.04;100.00;99534.19;5071049;28;20044;-73
2023/05/21 01:06:33;;;;;;;12.88;7.32;;;;;;;17.04;100.00;99513.66;5053049;28;20512;-73
2023/05/21 01:08:59;;;;;;;11.75;7.13;;;;;;;16.97;100.00;99478.16;5070900;28;20036;-73
2023/05/21 01:11:52;;;;;;;7.63;6.07;;;;;;;16.73;100.00;99454.00;5070374;28;20041;-74
2023/05/21 01:14:19;;;;;;;9.45;6.07;;;;;;;17.00;100.00;99501.91;5070024;28;20051;-73
2023/05/21 01:16:47;;;;;;;10.82;6.40;;;;;;;16.98;100.00;99490.09;5070776;28;20021;-74
2023/05/21 01:19:18;;;;;;;11.35;6.25;;;;;;;16.74;100.00;99438.50;5070666;28;20483;-73
2023/05/21 01:21:46;;;;;;;10.50;6.70;;;;;;;16.53;100.00;99429.56;5052673;28;20116;-73
2023/05/21 01:24:13;;;;;;;10.32;6.47;;;;;;;16.50;100.00;99431.50;5052855;28;20033;-74
2023/05/21 01:26:41;;;;;;;10.63;6.20;;;;;;;16.68;100.00;99441.44;5052819;28;20330;-74
2023/05/21 01:29:11;;;;;;;8.27;5.82;;;;;;;16.92;100.00;99475.88;5053027;28;20067;-73
2023/05/21 01:31:45;;;;;;;7.43;5.72;;;;;;;16.99;100.00;99473.75;5054496;28;20123;-73
2023/05/21 01:34:13;;;;;;;10.43;5.90;;;;;;;16.75;100.00;99434.19;5074336;28;20045;-73
2023/05/21 01:36:46;;;;;;;8.88;5.55;;;;;;;16.90;100.00;99471.75;5074839;28;20115;-74
2023/05/21 01:39:18;;;;;;;8.05;5.90;;;;;;;16.94;100.00;99474.03;5056505;28;20025;-74
2023/05/21 01:41:46;;;;;;;9.07;5.57;;;;;;;16.50;100.00;99419.47;5074729;28;20376;-73
2023/05/21 01:44:13;;;;;;;8.32;5.55;;;;;;;16.53;100.00;99409.03;5073891;28;20498;-73
2023/05/21 01:46:39;;;;;;;8.95;5.65;;;;;;;16.78;100.00;99454.53;5055927;28;20028;-73
2023/05/21 01:49:07;;;;;;;9.52;5.50;;;;;;;16.93;100.00;99472.41;5074539;28;20032;-73
2023/05/21 01:51:34;;;;;;;8.10;5.50;;;;;;;16.99;100.00;99486.59;5074303;28;20024;-73
2023/05/21 01:54:00;;;;;;;9.00;5.45;;;;;;;16.73;100.00;99434.31;5074377;28;20032;-73
2023/05/21 01:56:27;;;;;;;11.50;5.57;;;;;;;16.74;100.00;99430.81;5074181;28;20117;-74
2023/05/21 01:59:02;;;;;;;12.52;5.65;;;;;;;16.69;100.00;99422.56;5074238;28;20024;-73
2023/05/21 02:01:29;;;;;;;12.80;5.30;;;;;;;16.76;100.00;99428.13;5073999;28;20036;-74
2023/05/21 02:03:55;;;;;;;9.07;5.53;;;;;;;16.74;100.00;99430.00;5056024;28;20267;-73
2023/05/21 02:06:21;;;;;;;8.40;5.25;;;;;;;16.80;100.00;99429.59;5073800;28;20487;-73
2023/05/21 02:08:47;;;;;;;10.18;5.40;;;;;;;16.55;100.00;99399.50;5073764;28;20049;-74
2023/05/21 02:11:12;;;;;;;9.20;5.30;;;;;;;17.28;100.00;99494.13;5073573;28;20136;-73
2023/05/21 02:13:41;;;;;;;11.88;5.45;;;;;;;16.61;100.00;99404.25;5072883;28;20028;-73
2023/05/21 02:16:10;;;;;;;9.90;5.20;;;;;;;17.15;100.00;99500.16;5073515;28;20479;-73
2023/05/21 02:18:37;;;;;;;10.38;5.22;;;;;;;17.29;100.00;99502.69;5055723;28;20032;-73
2023/05/21 02:21:02;;;;;;;8.57;5.00;;;;;;;17.45;100.00;99505.09;5055506;28;20024;-73
2023/05/21 02:23:28;;;;;;;7.68;5.28;;;;;;;17.42;100.00;99495.00;5073534;28;20060;-74
2023/05/21 02:25:53;;;;;;;11.40;5.18;;;;;;;17.24;100.00;99487.53;5073046;28;20056;-73
2023/05/21 02:28:20;;;;;;;6.35;4.47;;;;;;;17.11;100.00;99466.09;5054761;28;20237;-74
2023/05/21 02:30:45;;;;;;;8.43;5.40;;;;;;;17.41;100.00;99516.50;5073515;28;20561;-73
2023/05/21 02:33:13;;;;;;;7.57;5.03;;;;;;;17.29;100.00;99508.63;5055406;28;20115;-73
2023/05/21 02:35:38;;;;;;;9.45;5.40;;;;;;;17.15;100.00;99471.88;5055534;28;20115;-73
2023/05/21 02:38:04;;;;;;;6.95;5.13;;;;;;;17.10;100.00;99499.59;5072986;28;20031;-73
2023/05/21 02:40:29;;;;;;;10.98;5.00;;;;;;;17.11;100.00;99501.25;5054729;28;20471;-73
2023/05/21 02:42:54;;;;;;;12.07;5.15;;;;;;;17.27;100.00;99525.88;5072048;28;20451;-73
2023/05/21 02:45:20;;;;;;;11.27;4.93;;;;;;;17.29;100.00;99538.66;5072873;28;20098;-74
2023/05/21 02:47:45;;;;;;;9.52;5.28;;;;;;;17.33;100.00;99553.75;5072498;28;20427;-72
2023/05/21 02:50:12;;;;;;;9.15;5.28;;;;;;;17.22;100.00;99534.81;5072853;28;20024;-73
2023/05/21 02:52:38;;;;;;;7.78;5.18;;;;;;;17.28;100.00;99542.97;5072264;28;20072;-75
2023/05/21 02:55:04;;;;;;;11.02;5.10;;;;;;;17.07;100.00;99497.22;5072946;28;20050;-73
2023/05/21 02:57:29;;;;;;;9.65;4.90;;;;;;;17.44;100.00;99562.56;5072701;28;20080;-73
2023/05/21 02:59:55;;;;;;;7.07;4.85;;;;;;;17.41;100.00;99552.47;5072709;28;20054;-74
2023/05/21 03:02:20;;;;;;;9.98;5.00;;;;;;;17.56;100.00;99577.25;5054508;28;20032;-73
2023/05/21 03:04:46;;;;;;;8.95;5.05;;;;;;;17.41;100.00;99557.63;5072388;28;20053;-73
2023/05/21 03:07:14;;;;;;;11.27;4.88;;;;;;;17.54;100.00;99597.91;5072532;28;20044;-73
2023/05/21 03:09:41;;;;;;;10.60;4.97;;;;;;;17.19;100.00;99537.56;5054640;28;20048;-74
2023/05/21 03:12:07;;;;;;;10.18;4.88;;;;;;;16.93;100.00;99503.22;5072443;28;20021;-73
2023/05/21 03:14:34;;;;;;;7.75;5.10;;;;;;;17.39;100.00;99601.38;5054406;28;20109;-70
2023/05/21 03:16:59;;;;;;;7.50;4.70;;;;;;;16.86;100.00;99514.78;5053945;28;20089;-70
2023/05/21 03:19:25;;;;;;;9.88;4.97;;;;;;;17.13;100.00;99568.78;5072193;28;20029;-72
2023/05/21 03:21:51;;;;;;;9.20;4.85;;;;;;;17.39;100.00;99592.88;5053816;28;20029;-72
2023/05/21 03:24:17;;;;;;;7.40;4.88;;;;;;;17.35;100.00;99599.94;5072048;28;20037;-71
2023/05/21 03:26:50;;;;;;;7.47;4.82;;;;;;;16.98;100.00;99552.56;5071785;28;20036;-72
2023/05/21 03:29:15;;;;;;;9.27;5.00;;;;;;;17.03;100.00;99542.84;5053658;28;20025;-73
2023/05/21 03:31:40;;;;;;;8.73;5.50;;;;;;;16.95;100.00;99569.91;5072253;28;20031;-77
2023/05/21 03:34:07;;;;;;;11.38;5.45;;;;;;;17.03;100.00;99537.69;5071685;28;20063;-71
2023/05/21 03:36:33;;;;;;;10.43;5.70;;;;;;;17.14;100.00;99567.84;5052286;28;20047;-71
2023/05/21 03:38:58;;;;;;;10.70;5.38;;;;;;;16.85;100.00;99517.44;5071073;28;20734;-70
2023/05/21 03:41:23;;;;;;;10.45;5.10;;;;;;;16.92;100.00;99506.69;5053132;28;20115;-71
2023/05/21 03:43:49;;;;;;;10.55;5.53;;;;;;;16.83;100.00;99502.13;5070885;28;21012;-71
2023/05/21 03:46:14;;;;;;;13.02;5.70;;;;;;;17.20;100.00;99540.03;5071195;28;20524;-71
2023/05/21 03:48:40;;;;;;;7.15;5.68;;;;;;;17.20;100.00;99537.47;5053567;28;20024;-71
2023/05/21 03:51:06;;;;;;;11.63;5.30;;;;;;;16.86;100.00;99480.56;5070532;28;20050;-72
2023/05/21 03:53:33;;;;;;;9.95;5.63;;;;;;;16.87;100.00;99497.63;5052559;28;20257;-71
2023/05/21 03:55:58;;;;;;;8.05;4.70;;;;;;;17.37;100.00;99533.03;5070977;28;20533;-71
2023/05/21 03:58:23;;;;;;;13.10;5.25;;;;;;;17.17;100.00;99490.59;5070742;28;20032;-73
2023/05/21 04:00:50;;;;;;;10.30;5.40;;;;;;;17.38;100.00;99512.38;5070860;28;20024;-72
2023/05/21 04:03:16;;;;;;;9.25;5.20;;;;;;;17.11;100.00;99483.28;5052924;28;20043;-71
2023/05/21 04:05:42;;;;;;;8.82;4.93;;;;;;;17.62;100.00;99530.56;5070733;28;20127;-71
2023/05/21 04:08:08;;;;;;;7.68;5.20;;;;;;;17.23;100.00;99479.94;5052662;28;20487;-71
2023/05/21 04:10:34;;;;;;;6.65;4.90;;;;;;;17.74;100.00;99540.09;5052365;28;20074;-72
2023/05/21 04:12:59;;;;;;;8.18;4.82;;;;;;;17.54;100.00;99546.50;5061428;28;20063;-73
2023/05/21 04:15:26;;;;;;;8.02;4.97;;;;;;;17.42;100.00;99493.25;5049042;28;20568;-72
2023/05/21 04:17:52;;;;;;;10.95;5.05;;;;;;;17.39;100.00;99484.94;5070900;28;20107;-74
2023/05/21 04:20:17;;;;;;;8.10;4.75;;;;;;;17.74;100.00;99540.09;5070789;28;20554;-70
2023/05/21 04:22:43;;;;;;;8.43;4.97;;;;;;;17.62;100.00;99528.00;5053007;28;20428;-72
2023/05/21 04:25:08;;;;;;;9.73;5.60;;;;;;;17.29;100.00;99449.53;5070213;28;20043;-72
2023/05/21 04:27:35;;;;;;;8.52;5.47;;;;;;;17.60;100.00;99488.72;5069906;28;20131;-74
2023/05/21 04:30:03;;;;;;;8.88;5.32;;;;;;;17.98;100.00;99553.94;5070761;28;20024;-73
2023/05/21 04:32:30;;;;;;;7.63;5.10;;;;;;;18.04;100.00;99548.41;5050291;28;20123;-73
2023/05/21 04:34:56;;;;;;;10.88;6.68;;;;;;;17.80;100.00;99507.09;5070293;28;20071;-72
2023/05/21 04:37:23;;;;;;;12.68;8.23;;;;;;;17.62;100.00;99499.72;5070340;28;20464;-71
2023/05/21 04:39:49;;;;;;;34.55;17.42;;;;;;;17.50;100.00;99482.53;5051939;28;20552;-71
2023/05/21 04:42:14;;;;;;;26.45;14.50;;;;;;;17.62;100.00;99517.72;5070974;28;20029;-73
2023/05/21 04:44:43;;;;;;;19.33;10.57;;;;;;;17.58;100.00;99483.69;5053064;28;20048;-75
2023/05/21 04:47:09;;;;;;;18.15;9.48;;;;;;;17.85;100.00;99499.06;5065675;28;20028;-72
2023/05/21 04:49:34;;;;;;;20.42;11.02;;;;;;;17.67;100.00;99469.41;5046455;28;20035;-72
2023/05/21 04:52:01;;;;;;;16.13;9.35;;;;;;;17.63;100.00;99465.41;5070798;28;20048;-73
2023/05/21 04:54:29;;;;;;;14.18;6.25;;;;;;;17.56;100.00;99451.28;5053045;28;20025;-74
2023/05/21 04:56:54;;;;;;;11.55;5.70;;;;;;;17.74;100.00;99411.50;5070476;28;20024;-74
2023/05/21 04:59:20;;;;;;;9.90;5.70;;;;;;;18.27;100.00;99496.22;5069653;28;20264;-74
2023/05/21 05:01:45;;;;;;;7.43;5.30;;;;;;;18.40;100.00;99502.19;5053064;28;20063;-73
2023/05/21 05:04:11;;;;;;;11.57;6.63;;;;;;;18.34;100.00;99506.94;5070480;28;20034;-73
2023/05/21 05:06:36;;;;;;;11.73;6.78;;;;;;;17.97;100.00;99439.91;5054311;28;20514;-73
2023/05/21 05:09:03;;;;;;;10.13;6.32;;;;;;;18.27;100.00;99473.06;5074638;28;20671;-73
2023/05/21 05:11:28;;;;;;;9.73;5.85;;;;;;;17.87;100.00;99449.16;5056649;28;20563;-73
2023/05/21 05:13:54;;;;;;;8.88;5.93;;;;;;;17.64;100.00;99428.47;5074473;28;20024;-73
2023/05/21 05:16:23;;;;;;;10.00;5.65;;;;;;;18.04;100.00;99437.75;5074101;28;20061;-74
2023/05/21 05:18:52;;;;;;;8.52;5.90;;;;;;;18.27;100.00;99483.34;5057166;28;20082;-73
2023/05/21 05:21:20;;;;;;;9.23;5.80;;;;;;;18.46;100.00;99473.47;5056272;28;20093;-75
2023/05/21 05:23:45;;;;;;;9.73;5.85;;;;;;;18.35;100.00;99409.00;5056494;28;20040;-73
2023/05/21 05:26:10;;;;;;;9.05;5.60;;;;;;;18.74;100.00;99455.19;5074715;28;20020;-73
2023/05/21 05:28:36;;;;;;;10.63;5.80;;;;;;;18.84;100.00;99439.91;5073606;28;20037;-73
2023/05/21 05:31:01;;;;;;;8.95;5.80;;;;;;;18.88;100.00;99454.22;5074229;28;20526;-73
2023/05/21 05:33:26;;;;;;;11.43;6.70;;;;;;;19.02;100.00;99439.44;5074209;28;20032;-73
2023/05/21 05:35:52;;;;;;;9.10;6.07;;;;;;;18.86;100.00;99446.63;5056732;28;20029;-73
2023/05/21 05:38:17;;;;;;;9.10;5.90;;;;;;;18.57;100.00;99406.63;5074053;28;20028;-74
2023/05/21 05:40:43;;;;;;;7.30;5.93;;;;;;;18.86;100.00;99386.53;5074392;28;20025;-73
2023/05/21 05:43:08;;;;;;;9.90;6.00;;;;;;;19.09;100.00;99396.03;5074312;28;20059;-73
2023/05/21 05:45:34;;;;;;;8.15;5.97;;;;;;;19.11;100.00;99406.22;5073735;28;20037;-73
2023/05/21 05:47:59;;;;;;;9.80;5.40;;;;;;;19.33;100.00;99407.16;5056127;28;20134;-74
2023/05/21 05:50:25;;;;;;;9.02;5.30;;;;;;;19.58;100.00;99463.75;5072570;28;20025;-74
2023/05/21 05:52:50;;;;;;;7.93;5.35;;;;;;;19.86;100.00;99431.59;5056327;28;20124;-78
2023/05/21 05:55:16;;;;;;;9.70;5.55;;;;;;;20.24;100.00;99488.09;5056466;28;20123;-73
2023/05/21 05:57:41;;;;;;;11.13;5.80;;;;;;;20.40;100.00;99494.56;5074176;28;20029;-73
2023/05/21 06:00:09;;;;;;;9.35;5.50;;;;;;;20.36;100.00;99446.66;5073545;28;20039;-74
2023/05/21 06:02:35;;;;;;;11.18;6.10;;;;;;;20.58;100.00;99422.59;5074063;28;20479;-73
2023/05/21 06:05:02;;;;;;;8.38;5.30;;;;;;;20.90;100.00;99480.31;5055947;28;20052;-73
2023/05/21 06:07:27;;;;;;;8.55;5.32;;;;;;;21.71;100.00;99537.59;5073598;28;20505;-73
2023/05/21 06:09:53;;;;;;;9.13;5.28;;;;;;;21.48;100.00;99561.91;5072866;28;20033;-74
2023/05/21 06:12:18;;;;;;;10.77;5.85;;;;;;;21.42;100.00;99555.47;5073786;28;20024;-73
2023/05/21 06:14:45;;;;;;;11.32;5.45;;;;;;;21.81;100.00;99559.25;5073770;28;20033;-74
2023/05/21 06:17:10;;;;;;;13.55;5.82;;;;;;;21.73;100.00;99597.84;5073277;28;20522;-74
2023/05/21 06:19:36;;;;;;;8.95;4.75;;;;;;;22.39;100.00;99613.13;5055494;28;20059;-73
2023/05/21 06:22:03;;;;;;;10.55;5.13;;;;;;;22.61;100.00;99629.50;5054613;28;20076;-73
2023/05/21 06:24:29;;;;;;;7.90;4.68;;;;;;;23.02;100.00;99639.81;5073492;28;20063;-75
2023/05/21 06:26:54;;;;;;;8.48;4.68;;;;;;;22.91;100.00;99681.41;5072863;28;20475;-73
2023/05/21 06:29:20;;;;;;;7.05;4.53;;;;;;;22.13;100.00;99668.81;5073218;28;20032;-74
2023/05/21 06:31:45;;;;;;;8.82;4.78;;;;;;;22.34;100.00;99702.53;5073163;28;20024;-74
2023/05/21 06:34:11;;;;;;;8.43;4.78;;;;;;;22.90;100.00;99749.78;5073076;28;20058;-73
2023/05/21 06:36:36;;;;;;;8.20;4.47;;;;;;;22.59;100.00;99683.25;5072507;28;20036;-73
2023/05/21 06:39:02;;;;;;;6.82;4.53;;;;;;;22.60;100.00;99755.69;5073367;28;20449;-75
2023/05/21 06:41:27;;;;;;;7.15;4.72;;;;;;;23.38;100.00;99753.50;5072696;28;20036;-74
2023/05/21 06:43:53;;;;;;;6.78;4.70;;;;;;;23.33;100.00;99786.81;5073007;28;20064;-73
2023/05/21 06:46:19;;;;;;;11.70;4.88;;;;;;;23.55;100.00;99762.47;5073418;28;20032;-74
2023/05/21 06:48:45;;;;;;;7.60;4.63;;;;;;;23.59;100.00;99865.91;5055198;28;20415;-74
2023/05/21 06:51:11;;;;;;;13.43;4.60;;;;;;;23.47;100.00;99934.44;5073210;28;20029;-74
2023/05/21 06:53:36;;;;;;;9.10;4.53;;;;;;;23.63;100.00;100176.28;5072220;28;20031;-74
2023/05/21 06:56:01;;;;;;;8.10;4.50;;;;;;;23.83;100.00;100411.09;5054828;28;20031;-73
2023/05/21 06:58:30;;;;;;;9.07;4.30;;;;;;;23.68;100.00;100820.84;5072586;28;20032;-73
2023/05/21 07:00:56;;;;;;;5.90;3.90;;;;;;;23.45;100.00;101281.16;5072905;28;20021;-74
2023/05/21 07:03:22;;;;;;;6.85;4.00;;;;;;;23.44;100.00;101933.91;5054016;28;20035;-73
2023/05/21 07:05:47;;;;;;;8.43;4.03;;;;;;;23.43;100.00;102388.50;5072128;28;20078;-72
2023/05/21 07:08:12;;;;;;;8.48;3.72;;;;;;;22.72;100.00;102791.00;5072588;28;20032;-73
2023/05/21 07:10:38;;;;;;;8.30;3.97;;;;;;;22.61;100.00;103999.66;5071878;28;20039;-72
2023/05/21 07:13:03;;;;;;;8.13;3.97;;;;;;;22.57;100.00;104266.13;5054198;28;20123;-73
2023/05/21 07:15:29;;;;;;;7.30;4.13;;;;;;;22.58;100.00;104495.38;5054454;28;20122;-73
2023/05/21 07:17:54;;;;;;;7.80;4.10;;;;;;;23.17;100.00;104584.19;5072240;28;20028;-73
2023/05/21 07:20:20;;;;;;;7.28;3.72;;;;;;;23.90;100.00;103922.13;5072126;28;20032;-73
2023/05/21 07:22:45;;;;;;;7.38;4.22;;;;;;;23.41;100.00;103638.13;5071747;28;20037;-73
2023/05/21 07:25:10;;;;;;;10.82;4.55;;;;;;;23.25;100.00;103376.97;5071930;28;20471;-73
2023/05/21 07:27:36;;;;;;;5.95;3.70;;;;;;;23.42;100.00;103354.03;5071868;28;20028;-73
2023/05/21 07:30:01;;;;;;;11.20;4.10;;;;;;;24.01;100.00;103353.16;5071152;28;20028;-73
2023/05/21 07:32:27;;;;;;;8.23;3.95;;;;;;;23.70;100.00;103104.59;5072105;28;20025;-72
2023/05/21 07:34:54;;;;;;;7.45;3.80;;;;;;;23.99;100.00;102998.72;5071863;28;20025;-72
2023/05/21 07:37:20;;;;;;;10.15;4.07;;;;;;;23.44;100.00;102823.97;5072153;28;20032;-73
2023/05/21 07:39:45;;;;;;;6.57;3.45;;;;;;;23.45;100.00;102764.19;5071251;28;20037;-72
2023/05/21 07:42:11;;;;;;;7.45;4.35;;;;;;;23.10;100.00;102704.84;5071571;28;20533;-72
2023/05/21 07:44:36;;;;;;;9.68;3.88;;;;;;;23.39;100.00;102735.00;5071314;28;20041;-72
2023/05/21 07:47:02;;;;;;;6.20;4.00;;;;;;;22.97;100.00;102665.53;5070886;28;20035;-72
2023/05/21 07:49:27;;;;;;;9.30;3.78;;;;;;;22.87;100.00;102650.34;5071066;28;20475;-72
2023/05/21 07:51:53;;;;;;;8.93;4.30;;;;;;;23.17;100.00;102616.31;5070584;28;20036;-71
2023/05/21 07:54:18;;;;;;;8.40;3.95;;;;;;;22.95;100.00;102540.16;5070754;28;20135;-71
2023/05/21 07:56:44;;;;;;;7.60;4.00;;;;;;;23.24;100.00;102590.94;5071778;28;20125;-70
2023/05/21 07:59:09;;;;;;;8.88;4.20;;;;;;;23.07;100.00;102586.41;5071097;28;20040;-71
2023/05/21 08:01:36;;;;;;;7.47;3.95;;;;;;;22.94;100.00;102592.94;5071536;28;20094;-70
2023/05/21 08:04:05;;;;;;;8.50;4.05;;;;;;;22.84;100.00;102734.34;5052974;28;20021;-72
2023/05/21 08:06:32;;;;;;;8.82;3.83;;;;;;;22.46;100.00;102806.53;5052928;28;20514;-74
2023/05/21 08:09:02;;;;;;;8.82;4.10;;;;;;;22.95;100.00;102967.59;5071434;28;20102;-71
2023/05/21 08:11:27;;;;;;;8.52;4.20;;;;;;;23.76;100.00;103110.44;5053845;28;20177;-74
2023/05/21 08:14:06;;;;;;;6.15;4.13;;;;;;;23.73;100.00;103305.47;5071531;28;20469;-72
2023/05/21 08:16:31;;;;;;;9.25;3.75;;;;;;;24.01;100.00;103695.59;5053023;28;20035;-73
2023/05/21 08:18:57;;;;;;;7.00;4.20;;;;;;;23.57;100.00;103725.22;5071413;28;20028;-72
2023/05/21 08:21:22;;;;;;;8.38;4.20;;;;;;;24.10;100.00;103830.69;5071165;28;20478;-72
2023/05/21 08:23:47;;;;;;;7.63;3.90;;;;;;;23.54;100.00;104122.97;5052668;28;20044;-73
2023/05/21 08:26:15;;;;;;;9.98;4.03;;;;;;;23.20;100.00;103790.06;5071142;28;20025;-70
2023/05/21 08:28:40;;;;;;;7.97;3.90;;;;;;;23.29;100.00;103638.38;5070864;28;20042;-72
2023/05/21 08:31:06;;;;;;;6.13;4.10;;;;;;;23.55;100.00;103617.84;5071286;28;20028;-72
2023/05/21 08:33:36;;;;;;;9.68;4.07;;;;;;;23.80;100.00;103615.53;5052945;28;20035;-71
2023/05/21 08:36:02;;;;;;;6.20;3.60;;;;;;;23.80;100.00;103356.41;5071045;28;20024;-71
2023/05/21 08:38:27;;;;;;;7.75;4.05;;;;;;;24.31;100.00;103410.41;5071043;28;20111;-71
2023/05/21 08:40:53;;;;;;;6.80;3.90;;;;;;;23.97;100.00;103208.53;5069610;28;20182;-70
2023/05/21 08:43:19;;;;;;;9.48;4.40;;;;;;;23.89;100.00;103168.06;5070084;28;20033;-72
2023/05/21 08:45:53;;;;;;;9.73;4.60;;;;;;;23.53;100.00;103214.25;5070333;28;20033;-72
2023/05/21 08:48:21;;;;;;;10.82;4.50;;;;;;;24.20;100.00;103287.63;5070827;28;20485;-71
2023/05/21 08:50:50;;;;;;;9.98;4.25;;;;;;;24.08;100.00;103037.44;5052695;28;20050;-73
2023/05/21 08:53:15;;;;;;;7.55;4.55;;;;;;;23.29;100.00;102849.56;5071037;28;20399;-72
2023/05/21 08:55:42;;;;;;;6.80;3.83;;;;;;;23.47;100.00;102813.50;5070669;28;20039;-72
2023/05/21 08:58:09;;;;;;;7.70;4.28;;;;;;;23.48;100.00;102727.69;5070510;28;20031;-72
2023/05/21 09:00:34;;;;;;;7.40;4.70;;;;;;;23.94;100.00;102696.44;5070804;28;20071;-74
2023/05/21 09:03:00;;;;;;;9.70;3.80;;;;;;;23.89;100.00;102602.19;5070492;28;20127;-72
2023/05/21 09:05:27;;;;;;;16.17;4.03;;;;;;;23.77;100.00;102425.94;5052584;28;20426;-71
2023/05/21 09:08:04;;;;;;;5.40;4.00;;;;;;;23.50;100.00;102214.13;5070561;28;20036;-73
2023/05/21 09:10:38;;;;;;;6.72;4.20;;;;;;;24.04;100.00;101945.56;5070613;28;20029;-72
2023/05/21 09:13:06;;;;;;;8.18;4.32;;;;;;;24.10;100.00;101555.28;5071046;28;20058;-72
2023/05/21 09:15:32;;;;;;;6.97;4.03;;;;;;;23.80;100.00;101094.53;5052890;28;20054;-71
2023/05/21 09:17:57;;;;;;;8.98;4.18;;;;;;;24.30;100.00;100772.28;5052656;28;20101;-72
2023/05/21 09:20:25;;;;;;;8.93;4.30;;;;;;;24.57;100.00;100535.34;5070697;28;20028;-72
2023/05/21 09:22:51;;;;;;;6.75;4.32;;;;;;;24.58;100.00;100496.22;5052466;28;20032;-72
2023/05/21 09:25:28;;;;;;;8.27;4.60;;;;;;;24.20;100.00;100347.59;5070412;28;20095;-72
2023/05/21 09:27:56;;;;;;;6.88;4.40;;;;;;;24.13;100.00;100239.06;5068748;28;20024;-72
2023/05/21 09:30:22;;;;;;;7.85;4.10;;;;;;;23.73;100.00;100212.78;5070062;28;20112;-72
2023/05/21 09:32:53;;;;;;;8.05;4.07;;;;;;;24.43;100.00;100201.00;5070652;28;20474;-72
2023/05/21 09:35:19;;;;;;;7.70;3.83;;;;;;;24.61;100.00;100118.88;5070789;28;20035;-73
2023/05/21 09:37:47;;;;;;;7.85;4.05;;;;;;;23.84;100.00;100075.06;5069986;28;20036;-73
2023/05/21 09:40:14;;;;;;;8.10;3.90;;;;;;;24.16;100.00;100140.88;5070369;28;20169;-73
2023/05/21 09:42:42;;;;;;;11.25;4.10;;;;;;;24.32;100.00;100102.28;5070055;28;20028;-73
2023/05/21 09:45:08;;;;;;;5.53;3.92;;;;;;;25.18;100.00;100086.25;5070528;28;20137;-74
2023/05/21 09:47:42;;;;;;;6.13;3.70;;;;;;;24.70;100.00;100040.06;5070847;28;20474;-73
2023/05/21 09:50:12;;;;;;;6.90;3.80;;;;;;;24.61;100.00;100077.25;5070424;28;20028;-75
2023/05/21 09:52:38;;;;;;;9.38;4.05;;;;;;;24.40;100.00;100118.06;5072543;28;20032;-72
2023/05/21 09:55:09;;;;;;;9.63;4.50;;;;;;;24.17;100.00;100126.09;5073695;28;20040;-72
2023/05/21 09:57:42;;;;;;;7.13;3.85;;;;;;;23.70;100.00;100068.41;5074087;28;20411;-72
2023/05/21 10:00:16;;;;;;;6.45;3.80;;;;;;;24.28;100.00;100055.88;5074146;28;20387;-73
2023/05/21 10:02:43;;;;;;;6.30;3.65;;;;;;;24.37;100.00;100125.28;5073532;28;20103;-74
2023/05/21 10:05:10;;;;;;;7.35;4.47;;;;;;;23.79;100.00;100111.00;5043190;28;20053;-74
2023/05/21 10:07:36;;;;;;;8.65;4.13;;;;;;;24.10;100.00;100120.59;5033969;28;20025;-73
2023/05/21 10:10:05;;;;;;;9.27;4.10;;;;;;;23.79;100.00;100059.06;5033615;28;20122;-72
2023/05/21 10:12:32;;;;;;;8.00;4.30;;;;;;;24.22;100.00;100025.19;5033205;28;20044;-73
2023/05/21 10:15:03;;;;;;;8.52;4.22;;;;;;;23.79;100.00;99992.31;5033727;28;20041;-73
2023/05/21 10:17:29;;;;;;;7.63;3.88;;;;;;;23.69;100.00;99951.69;5032028;28;20052;-73
2023/05/21 10:19:55;;;;;;;6.55;3.90;;;;;;;24.29;100.00;100010.72;5031713;28;20065;-72
2023/05/21 10:22:23;;;;;;;6.65;4.28;;;;;;;24.50;100.00;100027.13;5033530;28;20045;-72
2023/05/21 10:24:50;;;;;;;9.15;4.43;;;;;;;24.12;100.00;100039.91;5032887;28;20125;-73
2023/05/21 10:27:16;;;;;;;9.73;4.63;;;;;;;23.94;100.00;100016.22;5033642;28;20029;-72
2023/05/21 10:29:44;;;;;;;7.80;4.10;;;;;;;23.45;100.00;99984.84;5032468;28;20048;-75
2023/05/21 10:32:12;;;;;;;8.98;4.10;;;;;;;23.49;100.00;100018.22;5033238;28;20528;-73
2023/05/21 10:34:37;;;;;;;7.05;4.20;;;;;;;23.91;100.00;100042.44;5033123;28;20040;-73
2023/05/21 10:37:06;;;;;;;7.53;4.40;;;;;;;23.51;100.00;100010.28;5031894;28;20041;-73
2023/05/21 10:39:33;;;;;;;7.00;3.78;;;;;;;23.63;100.00;100056.03;5031201;28;20095;-73
2023/05/21 10:42:07;;;;;;;5.72;4.30;;;;;;;23.65;100.00;100077.53;5032627;28;20055;-75
2023/05/21 10:44:53;;;;;;;9.30;3.97;;;;;;;22.86;100.00;100010.28;5033446;28;20063;-74
2023/05/21 10:47:30;;;;;;;9.20;4.55;;;;;;;23.49;100.00;100085.72;5031952;28;20103;-73
2023/05/21 10:50:49;;;;;;;6.22;4.40;;;;;;;23.37;100.00;100067.69;5033325;28;20040;-75
2023/05/21 10:53:26;;;;;;;9.73;4.63;;;;;;;23.49;100.00;100079.69;5010468;28;20045;-74
2023/05/21 10:56:08;;;;;;;9.13;4.47;;;;;;;23.01;100.00;100029.84;5033464;28;20029;-73
2023/05/21 10:58:55;;;;;;;9.85;4.25;;;;;;;23.10;100.00;100074.06;5031873;28;20525;-74
2023/05/21 11:01:21;;;;;;;5.88;3.92;;;;;;;23.05;100.00;100081.38;5032751;28;20476;-73
2023/05/21 11:03:49;;;;;;;8.70;4.30;;;;;;;22.64;100.00;100025.88;5030410;28;20037;-73
2023/05/21 11:06:25;;;;;;;9.98;4.70;;;;;;;23.20;100.00;100149.41;5031588;28;20073;-72
2023/05/21 11:08:52;;;;;;;7.95;3.90;;;;;;;22.49;100.00;100138.44;4677507;28;10000309;-73
2023/05/21 11:11:49;;;;;;;8.60;4.57;;;;;;;22.65;100.00;100266.84;5028379;28;20033;-73
2023/05/21 11:14:37;;;;;;;7.25;4.30;;;;;;;22.64;100.00;100340.38;5024383;28;20567;-73
2023/05/21 11:17:15;;;;;;;7.05;4.13;;;;;;;22.30;100.00;100378.19;5031233;28;20037;-72
2023/05/21 11:19:50;;;;;;;6.97;4.10;;;;;;;22.54;100.00;100419.69;5030500;28;20048;-72